Time;durP1;ratioP1;P1;durP2;ratioP2;P2;SDS_P1;SDS_P2;PMS_P1;PMS_P2;Temp;Humidity;BMP_temperature;BMP_pressure;BME280_temperature;BME280_humidity;BME280_pressure;Samples;Min_cycle;Max_cycle;Signal;HPM_P1;HPM_P2
2021/01/26 00:01:15;;;;;;;25.20;15.25;;;;;;;1.23;70.67;98665.63;5092368;28;20047;-63
2021/01/26 00:03:42;;;;;;;23.77;15.50;;;;;;;1.32;70.56;98671.78;5092728;28;20044;-63
2021/01/26 00:06:08;;;;;;;22.70;14.73;;;;;;;1.33;70.53;98668.22;5091875;28;20131;-64
2021/01/26 00:08:35;;;;;;;25.35;15.02;;;;;;;1.41;70.44;98671.75;5090892;28;20412;-64
2021/01/26 00:11:04;;;;;;;22.70;15.00;;;;;;;1.42;70.56;98667.38;5092165;28;20078;-64
2021/01/26 00:13:31;;;;;;;24.75;16.33;;;;;;;1.39;70.42;98678.09;5092298;28;20040;-64
2021/01/26 00:15:58;;;;;;;30.98;20.90;;;;;;;1.39;70.57;98673.69;5091716;28;20040;-64
2021/01/26 00:18:25;;;;;;;23.98;14.85;;;;;;;1.28;70.25;98668.63;5092013;28;20048;-64
2021/01/26 00:20:52;;;;;;;24.10;15.68;;;;;;;1.24;70.65;98675.88;5092431;28;20052;-64
2021/01/26 00:23:18;;;;;;;26.90;15.98;;;;;;;1.24;70.64;98673.28;5093016;28;20090;-63
2021/01/26 00:25:45;;;;;;;24.65;15.90;;;;;;;1.22;70.83;98667.41;5110670;28;20055;-63
2021/01/26 00:28:15;;;;;;;25.83;15.77;;;;;;;1.25;70.68;98666.28;5109261;28;20048;-63
2021/01/26 00:30:42;;;;;;;24.50;15.18;;;;;;;1.21;70.81;98664.91;5097597;28;20055;-64
2021/01/26 00:33:11;;;;;;;27.52;16.42;;;;;;;1.21;70.75;98659.69;5091987;28;20048;-64
2021/01/26 00:35:40;;;;;;;24.10;15.15;;;;;;;1.19;70.82;98670.25;5091840;28;20425;-64
2021/01/26 00:38:07;;;;;;;27.38;16.60;;;;;;;1.15;71.12;98676.69;5091922;28;20040;-63
2021/01/26 00:40:34;;;;;;;26.25;15.98;;;;;;;1.15;70.87;98665.47;5091894;28;20059;-64
2021/01/26 00:43:01;;;;;;;24.92;15.57;;;;;;;1.14;70.91;98666.41;5091718;28;20040;-63
2021/01/26 00:45:29;;;;;;;25.95;15.82;;;;;;;1.14;70.81;98658.59;5091355;28;20424;-64
2021/01/26 00:47:57;;;;;;;22.75;14.80;;;;;;;0.90;71.05;98651.19;5091661;28;20036;-64
2021/01/26 00:50:27;;;;;;;25.67;15.55;;;;;;;0.91;71.23;98647.63;5091577;28;20513;-64
2021/01/26 00:52:55;;;;;;;25.27;15.07;;;;;;;0.81;71.54;98644.19;5090405;28;20101;-64
2021/01/26 00:55:31;;;;;;;23.83;14.65;;;;;;;0.73;71.68;98647.44;5090339;28;20043;-64
2021/01/26 00:57:58;;;;;;;26.15;15.70;;;;;;;0.74;71.86;98660.34;5091649;28;20093;-64
2021/01/26 01:00:29;;;;;;;25.13;15.98;;;;;;;0.74;72.03;98655.13;5090247;28;20071;-64
2021/01/26 01:03:03;;;;;;;25.70;16.02;;;;;;;0.78;72.09;98657.47;5090391;28;20570;-63
2021/01/26 01:05:30;;;;;;;24.70;14.90;;;;;;;0.74;72.05;98652.53;5094291;28;20111;-64
2021/01/26 01:07:57;;;;;;;26.58;15.98;;;;;;;0.77;71.95;98655.81;5095076;28;20040;-64
2021/01/26 01:10:27;;;;;;;24.17;15.02;;;;;;;0.73;71.96;98655.25;5093750;28;20051;-64
2021/01/26 01:12:54;;;;;;;24.48;14.82;;;;;;;0.74;72.11;98657.75;5095147;28;20533;-63
2021/01/26 01:15:22;;;;;;;25.30;15.23;;;;;;;0.69;72.25;98654.72;5094760;28;20043;-64
2021/01/26 01:17:49;;;;;;;28.20;15.95;;;;;;;0.73;72.60;98663.06;5094852;28;20397;-64
2021/01/26 01:20:19;;;;;;;27.02;15.82;;;;;;;0.70;72.49;98668.56;5095163;28;20059;-64
2021/01/26 01:22:46;;;;;;;26.35;16.73;;;;;;;0.72;72.55;98674.44;5094869;28;20047;-63
2021/01/26 01:25:14;;;;;;;26.10;16.05;;;;;;;0.71;72.59;98676.22;5094507;28;20040;-64
2021/01/26 01:27:41;;;;;;;26.92;16.50;;;;;;;0.70;72.64;98681.56;5093589;28;20048;-64
2021/01/26 01:30:11;;;;;;;31.58;16.25;;;;;;;0.72;72.78;98680.44;5094682;28;20498;-64
2021/01/26 01:32:38;;;;;;;25.90;15.98;;;;;;;0.74;72.58;98675.94;5094667;28;20046;-64
2021/01/26 01:35:06;;;;;;;26.52;14.63;;;;;;;0.75;72.71;98671.56;5094194;28;20046;-64
2021/01/26 01:37:34;;;;;;;28.08;15.35;;;;;;;0.71;72.67;98680.59;5094751;28;20048;-64
2021/01/26 01:40:01;;;;;;;23.50;14.98;;;;;;;0.68;72.97;98680.84;5094603;28;20040;-64
2021/01/26 01:42:28;;;;;;;26.63;15.30;;;;;;;0.64;73.18;98680.28;5094579;28;20521;-64
2021/01/26 01:44:54;;;;;;;25.90;15.05;;;;;;;0.66;73.38;98680.19;5094191;28;20413;-63
2021/01/26 01:47:28;;;;;;;29.60;16.80;;;;;;;0.70;73.35;98681.56;5094829;28;20482;-64
2021/01/26 01:49:56;;;;;;;25.40;16.27;;;;;;;0.68;73.45;98689.47;5094415;28;20052;-64
2021/01/26 01:52:27;;;;;;;27.77;15.15;;;;;;;0.70;73.55;98677.19;5094687;28;20081;-63
2021/01/26 01:54:59;;;;;;;29.65;16.15;;;;;;;0.74;73.67;98664.72;5094271;28;20036;-64
2021/01/26 01:57:28;;;;;;;26.42;15.75;;;;;;;0.74;73.67;98667.34;5094367;28;20492;-64
2021/01/26 01:59:58;;;;;;;25.85;15.45;;;;;;;0.74;73.74;98665.53;5094297;28;20048;-64
2021/01/26 02:02:28;;;;;;;25.42;15.40;;;;;;;0.81;73.73;98668.41;5093040;28;20048;-64
2021/01/26 02:04:58;;;;;;;26.17;15.48;;;;;;;0.77;73.73;98681.84;5093947;28;20047;-64
2021/01/26 02:07:27;;;;;;;27.63;16.40;;;;;;;0.82;73.93;98679.69;5094878;28;20043;-64
2021/01/26 02:09:54;;;;;;;24.00;14.43;;;;;;;0.83;73.79;98679.53;5094275;28;20036;-64
2021/01/26 02:12:21;;;;;;;29.45;16.08;;;;;;;0.87;73.84;98690.50;5093869;28;20055;-63
2021/01/26 02:14:53;;;;;;;25.65;15.82;;;;;;;0.88;73.72;98687.75;5093652;28;20047;-64
2021/01/26 02:17:32;;;;;;;24.77;14.82;;;;;;;0.93;73.81;98695.16;5093715;28;20051;-64
2021/01/26 02:20:44;;;;;;;27.08;15.13;;;;;;;0.94;73.81;98694.22;5093748;28;20036;-64
2021/01/26 02:23:57;;;;;;;26.83;14.73;;;;;;;0.89;73.90;98688.56;5093633;28;20063;-64
2021/01/26 02:27:09;;;;;;;27.75;14.52;;;;;;;0.98;73.84;98693.00;5045826;28;20055;-64
2021/01/26 02:30:19;;;;;;;31.83;15.00;;;;;;;0.98;73.82;98699.03;5031065;28;20148;-64
2021/01/26 02:33:18;;;;;;;25.55;15.00;;;;;;;1.03;73.79;98706.44;5093668;28;20508;-63
2021/01/26 02:36:15;;;;;;;21.55;13.57;;;;;;;1.01;73.58;98710.94;5091880;28;20521;-64
2021/01/26 02:39:13;;;;;;;23.13;13.60;;;;;;;0.97;73.76;98725.16;5093379;28;20044;-64
2021/01/26 02:41:47;;;;;;;24.38;13.88;;;;;;;0.92;73.91;98717.75;5093441;28;20048;-64
2021/01/26 02:44:22;;;;;;;26.77;12.85;;;;;;;1.01;73.86;98712.72;5093315;28;20047;-64
2021/01/26 02:46:56;;;;;;;27.73;13.85;;;;;;;0.94;73.79;98723.66;5094206;28;20040;-63
2021/01/26 02:49:32;;;;;;;23.40;12.90;;;;;;;0.95;73.95;98722.72;5093902;28;20051;-63
2021/01/26 02:52:06;;;;;;;22.85;12.50;;;;;;;1.01;74.02;98736.13;5093705;28;20048;-63
2021/01/26 02:54:45;;;;;;;23.60;12.00;;;;;;;0.97;73.78;98736.41;5093409;28;20048;-63
2021/01/26 02:57:19;;;;;;;24.08;12.52;;;;;;;0.99;74.19;98729.28;5093842;28;20127;-64
2021/01/26 02:59:51;;;;;;;24.88;13.65;;;;;;;0.98;74.10;98732.84;5093759;28;20505;-63
2021/01/26 03:02:23;;;;;;;25.30;13.63;;;;;;;1.06;74.11;98721.78;5093495;28;20044;-63
2021/01/26 03:04:57;;;;;;;20.35;12.70;;;;;;;1.13;74.09;98717.66;5093292;28;20044;-63
2021/01/26 03:07:27;;;;;;;25.60;13.43;;;;;;;1.07;74.30;98720.81;5093836;28;20040;-63
2021/01/26 03:09:59;;;;;;;22.65;12.65;;;;;;;1.11;74.34;98713.56;5093428;28;20044;-63
2021/01/26 03:12:32;;;;;;;20.27;12.25;;;;;;;1.08;74.09;98732.88;5093268;28;20118;-63
2021/01/26 03:15:03;;;;;;;21.45;12.13;;;;;;;1.08;74.20;98742.47;5093127;28;20032;-63
2021/01/26 03:17:35;;;;;;;20.38;11.55;;;;;;;1.11;74.16;98737.81;5093182;28;20044;-63
2021/01/26 03:20:12;;;;;;;18.80;10.90;;;;;;;1.08;74.10;98734.66;5091823;28;20048;-63
2021/01/26 03:22:41;;;;;;;22.25;11.95;;;;;;;1.11;74.06;98744.81;5093364;28;20059;-63
2021/01/26 03:25:09;;;;;;;20.75;11.80;;;;;;;1.16;74.01;98734.81;5092697;28;20043;-63
2021/01/26 03:27:41;;;;;;;21.05;11.98;;;;;;;1.19;73.91;98737.97;5098569;28;20081;-64
2021/01/26 03:30:12;;;;;;;21.30;11.00;;;;;;;1.19;73.84;98748.38;5096447;28;20055;-63
2021/01/26 03:32:48;;;;;;;19.63;10.55;;;;;;;1.19;73.81;98748.38;5093307;28;20048;-64
2021/01/26 03:35:16;;;;;;;20.33;10.88;;;;;;;1.25;73.73;98752.22;5093335;28;20051;-64
2021/01/26 03:37:51;;;;;;;20.92;11.13;;;;;;;1.33;73.74;98747.16;5091593;28;20509;-63
2021/01/26 03:40:17;;;;;;;;;;;;;;;1.34;73.46;98750.59;5092367;28;20052;-62
2021/01/26 03:42:46;;;;;;;21.48;11.75;;;;;;;1.34;73.59;98748.81;5091242;28;20448;-63
2021/01/26 03:45:13;;;;;;;19.48;10.70;;;;;;;1.39;73.49;98744.03;5092096;28;20111;-63
2021/01/26 03:47:55;;;;;;;19.52;10.98;;;;;;;1.38;73.44;98754.56;5092350;28;20059;-63
2021/01/26 03:50:40;;;;;;;21.85;11.20;;;;;;;1.40;73.41;98747.44;5092770;28;20123;-63
2021/01/26 03:53:40;;;;;;;18.45;10.35;;;;;;;1.39;73.58;98756.22;5092644;28;20055;-63
2021/01/26 03:56:17;;;;;;;18.73;10.63;;;;;;;1.41;73.29;98751.69;5092961;28;20036;-63
2021/01/26 03:58:56;;;;;;;21.45;11.60;;;;;;;1.38;73.45;98750.19;5094858;28;20044;-63
2021/01/26 04:01:32;;;;;;;18.13;10.35;;;;;;;1.36;73.39;98752.09;5093536;28;20044;-63
2021/01/26 04:04:04;;;;;;;17.77;9.55;;;;;;;1.30;73.35;98751.81;5094150;28;20055;-63
2021/01/26 04:06:37;;;;;;;22.65;10.48;;;;;;;1.36;73.54;98756.50;5094381;28;20592;-63
2021/01/26 04:09:08;;;;;;;19.40;10.50;;;;;;;1.40;73.45;98763.09;5092793;28;20051;-63
2021/01/26 04:11:41;;;;;;;17.27;10.10;;;;;;;1.37;73.35;98758.97;5094527;28;20051;-63
2021/01/26 04:14:15;;;;;;;17.15;10.27;;;;;;;1.39;73.51;98764.06;5095784;28;20047;-62
2021/01/26 04:16:49;;;;;;;20.17;10.82;;;;;;;1.37;73.44;98761.56;5094032;28;20052;-63
2021/01/26 04:19:22;;;;;;;18.33;10.85;;;;;;;1.43;73.65;98771.44;5096684;28;20051;-63
2021/01/26 04:21:49;;;;;;;18.13;10.77;;;;;;;1.43;73.16;98766.25;5098307;28;20044;-63
2021/01/26 04:24:16;;;;;;;18.90;10.32;;;;;;;1.43;73.30;98765.44;5096223;28;20051;-63
2021/01/26 04:26:44;;;;;;;21.27;10.18;;;;;;;1.45;73.36;98766.91;5093703;28;20040;-63
2021/01/26 04:29:12;;;;;;;17.63;9.63;;;;;;;1.44;73.32;98765.28;5093225;28;20040;-63
2021/01/26 04:31:38;;;;;;;19.98;9.50;;;;;;;1.45;73.35;98755.69;5093996;28;20412;-63
2021/01/26 04:34:06;;;;;;;14.00;8.40;;;;;;;1.44;73.28;98767.88;5093361;28;20048;-63
2021/01/26 04:36:33;;;;;;;15.48;8.43;;;;;;;1.47;73.20;98772.00;5092337;28;20055;-62
2021/01/26 04:39:00;;;;;;;13.73;8.65;;;;;;;1.49;73.14;98778.72;5093018;28;20052;-62
2021/01/26 04:41:39;;;;;;;15.80;8.13;;;;;;;1.43;72.94;98766.25;5094750;28;20048;-63
2021/01/26 04:44:31;;;;;;;15.93;8.10;;;;;;;1.48;73.04;98771.03;5096746;28;20044;-62
2021/01/26 04:47:10;;;;;;;12.90;7.05;;;;;;;1.52;72.91;98769.81;5096660;28;20036;-63
2021/01/26 04:49:47;;;;;;;18.73;8.18;;;;;;;1.56;72.93;98778.19;5097539;28;20494;-62
2021/01/26 04:52:23;;;;;;;14.27;7.18;;;;;;;1.56;72.75;98770.38;5097544;28;20040;-62
2021/01/26 04:55:01;;;;;;;10.48;6.80;;;;;;;1.61;72.83;98776.81;5108060;28;20044;-62
2021/01/26 04:57:51;;;;;;;13.65;6.68;;;;;;;1.65;72.59;98774.75;5109192;28;20052;-63
2021/01/26 05:00:28;;;;;;;12.40;6.85;;;;;;;1.68;72.39;98779.69;5104042;28;20391;-63
2021/01/26 05:03:07;;;;;;;11.10;6.53;;;;;;;1.63;72.19;98769.69;5094754;28;20382;-64
2021/01/26 05:05:39;;;;;;;12.85;5.97;;;;;;;1.55;72.47;98772.16;5095571;28;20124;-63
2021/01/26 05:08:11;;;;;;;14.48;6.63;;;;;;;1.54;72.52;98770.50;5095696;28;20116;-64
2021/01/26 05:10:42;;;;;;;17.20;6.57;;;;;;;1.51;72.32;98767.31;5095609;28;20066;-63
2021/01/26 05:13:15;;;;;;;12.23;6.85;;;;;;;1.58;72.48;98779.69;5094887;28;20055;-63
2021/01/26 05:15:46;;;;;;;13.95;6.32;;;;;;;1.57;72.39;98783.25;5094194;28;20048;-65
2021/01/26 05:18:21;;;;;;;11.50;5.93;;;;;;;1.57;72.24;98774.63;5095370;28;20051;-64
2021/01/26 05:20:53;;;;;;;10.98;6.03;;;;;;;1.56;72.50;98783.41;5094223;28;20403;-63
2021/01/26 05:23:25;;;;;;;11.10;6.32;;;;;;;1.63;72.70;98777.50;5095209;28;20047;-63
2021/01/26 05:26:04;;;;;;;12.02;6.13;;;;;;;1.58;72.30;98774.47;5095208;28;20040;-64
2021/01/26 05:28:30;;;;;;;13.15;6.28;;;;;;;1.57;72.46;98783.25;5097054;28;20044;-64
2021/01/26 05:31:05;;;;;;;17.65;6.10;;;;;;;1.51;72.41;98786.41;5096915;28;20044;-63
2021/01/26 05:33:32;;;;;;;8.20;5.38;;;;;;;1.47;72.49;98798.06;5093933;28;20098;-63
2021/01/26 05:36:02;;;;;;;13.27;6.07;;;;;;;1.47;72.52;98803.28;5094607;28;20047;-64
2021/01/26 05:38:30;;;;;;;9.13;5.50;;;;;;;1.53;72.63;98807.94;5094763;28;20052;-63
2021/01/26 05:41:00;;;;;;;14.80;5.60;;;;;;;1.50;72.52;98813.41;5094889;28;20044;-64
2021/01/26 05:43:30;;;;;;;9.18;5.78;;;;;;;1.51;72.35;98820.28;5095571;28;20048;-63
2021/01/26 05:46:00;;;;;;;9.43;5.72;;;;;;;1.52;72.36;98816.72;5094433;28;20048;-63
2021/01/26 05:48:28;;;;;;;11.93;5.82;;;;;;;1.56;72.35;98819.88;5093407;28;20044;-64
2021/01/26 05:51:17;;;;;;;15.50;6.78;;;;;;;1.61;72.33;98822.91;5094223;28;20052;-64
2021/01/26 05:53:50;;;;;;;10.75;5.40;;;;;;;1.62;72.08;98834.97;5094483;28;20044;-64
2021/01/26 05:56:18;;;;;;;8.70;5.78;;;;;;;1.66;72.09;98823.31;5094415;28;20051;-64
2021/01/26 05:58:47;;;;;;;6.32;4.68;;;;;;;1.64;72.10;98835.66;5094734;28;20047;-64
2021/01/26 06:01:26;;;;;;;8.02;5.93;;;;;;;1.65;71.78;98842.50;5094584;28;20044;-64
2021/01/26 06:04:11;;;;;;;12.57;4.95;;;;;;;1.62;71.93;98838.38;5093331;28;20055;-64
2021/01/26 06:06:55;;;;;;;;;;;;;;;1.59;71.61;98848.25;5095036;28;20044;-65
2021/01/26 06:09:37;;;;;;;10.30;4.90;;;;;;;1.55;71.94;98850.31;5094738;28;19920;-63
2021/01/26 06:12:15;;;;;;;8.98;4.85;;;;;;;1.54;71.92;98848.66;5095234;28;20048;-63
2021/01/26 06:14:44;;;;;;;10.25;4.93;;;;;;;1.56;71.99;98856.34;5094949;28;20040;-64
2021/01/26 06:17:17;;;;;;;9.20;4.47;;;;;;;1.61;71.92;98859.38;5094913;28;20048;-65
2021/01/26 06:19:44;;;;;;;11.32;4.93;;;;;;;1.60;71.73;98857.72;5094304;28;20097;-64
2021/01/26 06:22:23;;;;;;;5.88;4.18;;;;;;;1.58;71.77;98852.63;5094826;28;20051;-64
2021/01/26 06:24:53;;;;;;;9.68;4.07;;;;;;;1.55;71.65;98849.47;5094411;28;20047;-63
2021/01/26 06:27:33;;;;;;;9.50;5.32;;;;;;;1.63;71.75;98855.69;5093892;28;20044;-64
2021/01/26 06:30:14;;;;;;;8.60;4.53;;;;;;;1.61;71.61;98875.81;5094019;28;20059;-64
2021/01/26 06:32:54;;;;;;;12.02;4.90;;;;;;;1.68;71.54;98866.53;5094402;28;20114;-63
2021/01/26 06:35:32;;;;;;;9.10;4.32;;;;;;;1.67;71.30;98869.25;5094223;28;20064;-64
2021/01/26 06:38:09;;;;;;;9.02;5.05;;;;;;;1.65;71.09;98876.38;5094396;28;20044;-63
2021/01/26 06:41:02;;;;;;;9.82;5.03;;;;;;;1.68;71.63;98882.16;5092992;28;20055;-64
2021/01/26 06:43:53;;;;;;;13.90;5.05;;;;;;;1.64;71.21;98882.56;5094386;28;20409;-65
2021/01/26 06:46:28;;;;;;;8.30;4.30;;;;;;;1.54;71.65;98889.53;5094744;28;20047;-64
2021/01/26 06:49:08;;;;;;;7.93;4.25;;;;;;;1.58;71.63;98875.28;5094361;28;20517;-63
2021/01/26 06:52:05;;;;;;;11.05;5.25;;;;;;;1.56;71.80;98883.22;5093614;28;20057;-64
2021/01/26 06:54:48;;;;;;;8.45;4.57;;;;;;;1.57;71.77;98890.06;5093255;28;20050;-64
2021/01/26 06:57:56;;;;;;;8.40;5.25;;;;;;;1.60;71.86;98889.00;5093473;28;20082;-64
2021/01/26 07:00:46;;;;;;;7.72;4.43;;;;;;;1.55;71.75;98897.22;5093614;28;20048;-64
2021/01/26 07:03:50;;;;;;;8.45;4.43;;;;;;;1.56;72.01;98900.66;5085789;28;20070;-63
2021/01/26 07:06:43;;;;;;;11.02;4.82;;;;;;;1.59;71.89;98908.16;5097223;28;20070;-64
2021/01/26 07:09:22;;;;;;;9.55;4.50;;;;;;;1.60;71.76;98912.44;5100127;28;20047;-64
2021/01/26 07:12:09;;;;;;;11.50;3.90;;;;;;;1.53;71.61;98917.34;5095218;28;20336;-64
2021/01/26 07:14:58;;;;;;;7.38;3.85;;;;;;;1.47;71.33;98916.13;5092917;28;20455;-64
2021/01/26 07:17:36;;;;;;;6.90;4.18;;;;;;;1.49;71.50;98919.41;5093259;28;20052;-64
2021/01/26 07:20:11;;;;;;;14.98;5.50;;;;;;;1.47;71.61;98920.50;5093352;28;20036;-64
2021/01/26 07:23:04;;;;;;;10.15;4.72;;;;;;;1.58;71.59;98919.56;5093097;28;20051;-64
2021/01/26 07:25:46;;;;;;;11.57;5.85;;;;;;;1.54;71.34;98932.03;5092806;28;20040;-64
2021/01/26 07:28:36;;;;;;;9.07;4.38;;;;;;;1.46;71.11;98913.63;5093079;28;20413;-64
2021/01/26 07:31:08;;;;;;;8.60;4.70;;;;;;;1.52;71.41;98913.13;5093077;28;20036;-65
2021/01/26 07:33:40;;;;;;;8.07;3.88;;;;;;;1.50;71.20;98915.00;5093001;28;20058;-63
2021/01/26 07:36:13;;;;;;;9.32;4.13;;;;;;;1.48;71.26;98919.53;5092401;28;20405;-64
2021/01/26 07:38:46;;;;;;;9.40;4.55;;;;;;;1.43;71.21;98922.53;5092948;28;20378;-63
2021/01/26 07:41:20;;;;;;;6.10;3.90;;;;;;;1.44;71.48;98923.38;5092832;28;20105;-64
2021/01/26 07:43:54;;;;;;;10.48;4.93;;;;;;;1.49;71.41;98932.44;5092435;28;20063;-63
2021/01/26 07:46:27;;;;;;;8.63;3.95;;;;;;;1.49;71.53;98935.03;5092372;28;20059;-64
2021/01/26 07:49:00;;;;;;;7.43;3.92;;;;;;;1.49;71.33;98935.03;5092754;28;20044;-64
2021/01/26 07:51:31;;;;;;;5.78;3.85;;;;;;;1.53;71.30;98942.59;5092511;28;20211;-63
2021/01/26 07:54:07;;;;;;;9.55;3.70;;;;;;;1.46;71.20;98950.91;5091506;28;20216;-64
2021/01/26 07:56:37;;;;;;;9.80;4.32;;;;;;;1.48;71.24;98953.41;5092501;28;20051;-63
2021/01/26 07:59:09;;;;;;;13.02;4.70;;;;;;;1.47;71.17;98952.59;5092710;28;20046;-64
2021/01/26 08:01:40;;;;;;;6.95;3.92;;;;;;;1.54;71.17;98955.47;5092765;28;20382;-64
2021/01/26 08:04:08;;;;;;;12.10;4.25;;;;;;;1.55;70.88;98959.75;5092442;28;20044;-65
2021/01/26 08:06:54;;;;;;;5.75;3.67;;;;;;;1.52;70.83;98964.41;5092274;28;20036;-64
2021/01/26 08:09:26;;;;;;;8.38;4.43;;;;;;;1.53;70.97;98961.66;5092395;28;20047;-64
2021/01/26 08:11:59;;;;;;;11.70;3.97;;;;;;;1.57;70.72;98964.81;5092523;28;20413;-64
2021/01/26 08:14:37;;;;;;;6.35;4.10;;;;;;;1.60;70.76;98972.38;5095271;28;20048;-64
2021/01/26 08:17:09;;;;;;;8.77;4.72;;;;;;;1.63;70.65;98964.28;5096379;28;20114;-64
2021/01/26 08:19:39;;;;;;;4.80;2.90;;;;;;;1.62;70.08;98968.66;5099169;28;20054;-65
2021/01/26 08:22:18;;;;;;;7.20;4.68;;;;;;;1.62;70.24;98968.66;5097328;28;20043;-64
2021/01/26 08:24:48;;;;;;;9.02;4.57;;;;;;;1.63;70.44;98974.72;5095964;28;20051;-64
2021/01/26 08:27:54;;;;;;;9.10;3.65;;;;;;;1.63;70.05;98982.53;5096472;28;20044;-64
2021/01/26 08:30:39;;;;;;;8.18;3.80;;;;;;;1.64;70.20;98989.41;5096428;28;20040;-64
2021/01/26 08:33:09;;;;;;;8.70;3.50;;;;;;;1.67;70.26;98995.19;5096563;28;20052;-64
2021/01/26 08:36:11;;;;;;;10.02;3.90;;;;;;;1.68;69.40;98990.78;5095956;28;20062;-64
2021/01/26 08:38:47;;;;;;;8.48;3.50;;;;;;;1.73;69.93;98988.63;5096238;28;20390;-64
2021/01/26 08:41:47;;;;;;;10.02;3.88;;;;;;;1.78;69.59;98989.03;5096312;28;20036;-64
2021/01/26 08:44:53;;;;;;;7.05;3.95;;;;;;;1.76;69.79;98990.97;5095618;28;20040;-65
2021/01/26 08:47:49;;;;;;;7.93;3.28;;;;;;;1.76;69.28;99003.19;5095817;28;20047;-65
2021/01/26 08:50:22;;;;;;;9.32;3.60;;;;;;;1.75;69.32;98997.09;5095317;28;20098;-65
2021/01/26 08:52:49;;;;;;;6.45;4.07;;;;;;;1.74;69.34;99001.50;5095456;28;20055;-65
2021/01/26 08:55:41;;;;;;;8.35;4.18;;;;;;;1.90;69.43;98998.41;5095137;28;20052;-64
2021/01/26 08:58:11;;;;;;;7.95;3.90;;;;;;;1.95;69.09;98998.00;5095336;28;20063;-63
2021/01/26 09:00:42;;;;;;;8.00;3.97;;;;;;;1.95;68.93;99016.25;5095199;28;20039;-64
2021/01/26 09:03:29;;;;;;;6.90;3.60;;;;;;;1.96;68.66;99018.75;5093572;28;20410;-64
2021/01/26 09:05:59;;;;;;;6.43;3.55;;;;;;;1.96;69.04;99015.31;5094809;28;20059;-66
2021/01/26 09:08:59;;;;;;;6.43;3.78;;;;;;;1.98;68.86;99022.03;5095106;28;20072;-63
2021/01/26 09:11:41;;;;;;;8.18;3.90;;;;;;;1.94;68.85;99028.47;5094976;28;20055;-64
2021/01/26 09:14:30;;;;;;;6.28;3.50;;;;;;;1.88;69.12;99031.63;5095239;28;20040;-66
2021/01/26 09:17:01;;;;;;;7.47;3.97;;;;;;;1.85;69.07;99036.25;5093464;28;20414;-63
2021/01/26 09:19:32;;;;;;;9.02;4.03;;;;;;;1.92;69.08;99042.59;5094719;28;20105;-63
2021/01/26 09:22:07;;;;;;;6.95;4.22;;;;;;;1.83;68.84;99038.97;5094759;28;20039;-64
2021/01/26 09:24:37;;;;;;;9.85;3.97;;;;;;;1.82;68.98;99039.13;5094380;28;20444;-64
2021/01/26 09:27:20;;;;;;;7.72;3.90;;;;;;;1.88;69.28;99039.44;5095569;28;20044;-64
2021/01/26 09:29:47;;;;;;;12.45;4.07;;;;;;;1.83;69.15;99046.81;5094498;28;20426;-65
2021/01/26 09:32:19;;;;;;;6.75;3.72;;;;;;;1.84;69.30;99045.06;5096463;28;20048;-63
2021/01/26 09:34:46;;;;;;;8.23;4.10;;;;;;;1.71;69.32;99042.63;5096093;28;20079;-64
2021/01/26 09:37:21;;;;;;;7.18;4.30;;;;;;;1.72;69.39;99044.31;5094273;28;20425;-65
2021/01/26 09:39:48;;;;;;;9.05;3.85;;;;;;;1.74;69.31;99053.63;5093729;28;20053;-64
2021/01/26 09:42:20;;;;;;;9.30;4.35;;;;;;;1.73;69.34;99066.81;5094846;28;20052;-64
2021/01/26 09:44:57;;;;;;;8.10;4.20;;;;;;;1.70;69.23;99072.25;5094748;28;20036;-63
2021/01/26 09:47:26;;;;;;;11.73;4.97;;;;;;;1.72;69.38;99054.72;5094762;28;20218;-64
2021/01/26 09:50:01;;;;;;;7.28;3.90;;;;;;;1.77;69.20;99056.94;5094294;28;20093;-64
2021/01/26 09:52:28;;;;;;;7.28;4.03;;;;;;;1.88;68.83;99057.69;5094230;28;20052;-64
2021/01/26 09:55:03;;;;;;;7.38;4.30;;;;;;;1.92;68.66;99069.50;5092773;28;20338;-64
2021/01/26 09:57:30;;;;;;;10.23;3.85;;;;;;;1.97;68.41;99066.50;5094154;28;20511;-64
2021/01/26 09:59:58;;;;;;;9.20;3.70;;;;;;;2.03;68.25;99062.53;5094013;28;20075;-64
2021/01/26 10:02:26;;;;;;;4.97;3.55;;;;;;;2.07;67.87;99062.13;5094380;28;20105;-64
2021/01/26 10:04:55;;;;;;;8.07;3.55;;;;;;;2.20;67.75;99054.06;5092385;28;20066;-63
2021/01/26 10:07:24;;;;;;;8.30;4.95;;;;;;;2.27;67.03;99060.41;5093928;28;20085;-65
2021/01/26 10:09:52;;;;;;;5.97;3.30;;;;;;;2.25;66.94;99061.53;5093961;28;20048;-64
2021/01/26 10:12:27;;;;;;;7.70;3.63;;;;;;;2.27;66.82;99064.81;5093978;28;20048;-64
2021/01/26 10:15:18;;;;;;;8.15;3.30;;;;;;;2.18;66.60;99072.47;5093679;28;20036;-64
2021/01/26 10:17:48;;;;;;;9.55;3.92;;;;;;;2.25;66.87;99071.94;5093732;28;20040;-64
2021/01/26 10:20:22;;;;;;;9.05;3.83;;;;;;;2.22;66.36;99083.47;5093658;28;20130;-64
2021/01/26 10:22:49;;;;;;;6.03;2.70;;;;;;;2.29;66.34;99075.94;5093699;28;20051;-63
2021/01/26 10:25:17;;;;;;;6.90;3.20;;;;;;;2.32;66.39;99086.09;5093308;28;20498;-64
2021/01/26 10:27:44;;;;;;;10.43;3.65;;;;;;;2.32;66.29;99086.09;5093597;28;20406;-64
2021/01/26 10:30:13;;;;;;;9.52;3.53;;;;;;;2.36;66.12;99090.09;5092152;28;20391;-64
2021/01/26 10:32:44;;;;;;;7.03;2.95;;;;;;;2.44;66.12;99093.69;5093452;28;20051;-64
2021/01/26 10:35:28;;;;;;;9.00;3.47;;;;;;;2.48;65.79;99092.44;5093226;28;20131;-64
2021/01/26 10:37:56;;;;;;;5.30;3.13;;;;;;;2.55;65.65;99100.59;5092483;28;20087;-65
2021/01/26 10:40:33;;;;;;;5.13;2.85;;;;;;;2.51;65.71;99098.38;5093345;28;20370;-64
2021/01/26 10:43:06;;;;;;;7.63;2.70;;;;;;;2.50;65.42;99117.59;5093382;28;20051;-64
2021/01/26 10:45:46;;;;;;;5.77;2.57;;;;;;;2.50;65.30;99108.00;5093810;28;20048;-65
2021/01/26 10:48:21;;;;;;;6.53;3.42;;;;;;;2.50;65.86;99113.22;5093212;28;20048;-64
2021/01/26 10:50:48;;;;;;;6.03;2.78;;;;;;;2.51;65.67;99122.69;5094380;28;20044;-64
2021/01/26 10:53:39;;;;;;;6.60;3.00;;;;;;;2.56;65.74;99123.09;5093674;28;20063;-65
2021/01/26 10:56:07;;;;;;;7.72;2.83;;;;;;;2.47;65.72;99124.72;5093003;28;20051;-65
2021/01/26 10:58:33;;;;;;;6.70;3.25;;;;;;;2.54;65.71;99129.44;5093056;28;20043;-66
2021/01/26 11:01:00;;;;;;;6.35;3.47;;;;;;;2.54;65.59;99138.09;5093132;28;20048;-64
2021/01/26 11:03:27;;;;;;;5.40;3.22;;;;;;;2.43;65.74;99128.56;5093029;28;20267;-63
2021/01/26 11:05:55;;;;;;;8.90;4.15;;;;;;;2.59;65.85;99124.63;5092665;28;20044;-64
2021/01/26 11:08:22;;;;;;;12.05;3.58;;;;;;;2.57;65.59;99135.22;5092996;28;20472;-65
2021/01/26 11:10:50;;;;;;;8.50;3.90;;;;;;;2.47;65.52;99132.56;5093029;28;20040;-64
2021/01/26 11:13:16;;;;;;;8.48;3.85;;;;;;;2.52;65.57;99132.16;5093095;28;20048;-65
2021/01/26 11:15:43;;;;;;;7.50;3.72;;;;;;;2.58;65.62;99136.03;5092772;28;20036;-64
2021/01/26 11:18:11;;;;;;;8.90;3.47;;;;;;;2.52;65.15;99136.56;5093346;28;20044;-65
2021/01/26 11:20:38;;;;;;;8.77;3.80;;;;;;;2.48;65.35;99138.59;5093384;28;20066;-64
2021/01/26 11:23:05;;;;;;;7.80;3.92;;;;;;;2.56;65.49;99136.16;5092469;28;20048;-65
2021/01/26 11:25:32;;;;;;;5.88;3.80;;;;;;;2.56;65.51;99137.94;5091939;28;20055;-64
2021/01/26 11:28:00;;;;;;;6.90;3.70;;;;;;;2.49;65.18;99137.66;5093465;28;20049;-63
2021/01/26 11:30:27;;;;;;;6.97;3.92;;;;;;;2.52;65.69;99150.44;5093506;28;20039;-64
2021/01/26 11:32:54;;;;;;;8.35;3.45;;;;;;;2.44;65.30;99127.59;5093664;28;20040;-64
2021/01/26 11:35:24;;;;;;;7.60;3.97;;;;;;;2.50;65.51;99135.88;5092516;28;20509;-64
2021/01/26 11:37:52;;;;;;;7.85;3.78;;;;;;;2.64;65.61;99133.69;5092377;28;20053;-65
2021/01/26 11:40:20;;;;;;;7.75;4.05;;;;;;;2.65;65.05;99137.97;5092423;28;20047;-64
2021/01/26 11:42:47;;;;;;;10.02;5.13;;;;;;;2.69;64.72;99141.97;5092520;28;20051;-64
2021/01/26 11:45:19;;;;;;;14.20;5.05;;;;;;;2.62;64.74;99134.81;5092149;28;20052;-64
2021/01/26 11:47:46;;;;;;;9.23;5.00;;;;;;;2.51;64.74;99147.97;5090534;28;20052;-64
2021/01/26 11:50:15;;;;;;;8.50;4.22;;;;;;;2.58;65.08;99149.91;5092457;28;20052;-64
2021/01/26 11:52:42;;;;;;;10.32;5.32;;;;;;;2.64;65.19;99157.19;5092451;28;20048;-64
2021/01/26 11:55:11;;;;;;;13.52;5.82;;;;;;;2.67;65.02;99154.31;5092228;28;20044;-64
2021/01/26 11:57:41;;;;;;;9.65;5.65;;;;;;;2.68;64.81;99152.53;5092141;28;20403;-64
2021/01/26 12:00:10;;;;;;;8.15;5.00;;;;;;;2.76;64.63;99147.47;5092181;28;20414;-64
2021/01/26 12:02:39;;;;;;;9.45;5.15;;;;;;;2.68;64.44;99144.69;5092475;28;20048;-64
2021/01/26 12:05:07;;;;;;;7.32;3.90;;;;;;;2.76;64.40;99131.81;5090705;28;20063;-64
2021/01/26 12:07:35;;;;;;;12.10;5.13;;;;;;;2.83;64.20;99132.91;5092678;28;20117;-64